Time;durP1;ratioP1;P1;durP2;ratioP2;P2;SDS_P1;SDS_P2;PMS_P1;PMS_P2;Temp;Humidity;BMP_temperature;BMP_pressure;BME280_temperature;BME280_humidity;BME280_pressure;Samples;Min_cycle;Max_cycle;Signal;HPM_P1;HPM_P2
2022/11/18 00:01:19;;;;;;;14.30;13.00;;;;;;;6.36;99.06;98675.91;5015076;28;20608;-75
2022/11/18 00:03:47;;;;;;;13.53;12.40;;;;;;;6.34;97.76;98675.13;5013967;28;20214;-75
2022/11/18 00:06:16;;;;;;;13.10;11.90;;;;;;;6.34;98.50;98682.03;5015294;28;20234;-75
2022/11/18 00:08:43;;;;;;;14.37;13.07;;;;;;;6.31;98.71;98679.53;5015225;28;20218;-76
2022/11/18 00:11:12;;;;;;;12.77;11.60;;;;;;;6.29;98.66;98681.34;5015073;28;20211;-76
2022/11/18 00:16:24;;;;;;;12.67;11.57;;;;;;;6.18;98.80;98670.44;5015048;28;20826;-75
2022/11/18 00:18:51;;;;;;;13.50;12.30;;;;;;;6.20;98.92;98671.22;5014953;28;20215;-76
2022/11/18 00:21:18;;;;;;;13.67;12.37;;;;;;;6.18;98.92;98675.59;5014709;28;20210;-75
2022/11/18 00:23:45;;;;;;;13.47;12.17;;;;;;;6.18;99.29;98668.69;5015078;28;20213;-75
2022/11/18 00:26:14;;;;;;;14.73;13.43;;;;;;;6.19;98.51;98672.97;5014761;28;20237;-75
2022/11/18 00:28:41;;;;;;;14.03;12.63;;;;;;;6.23;98.00;98674.59;5015115;28;20212;-75
2022/11/18 00:31:09;;;;;;;13.73;12.53;;;;;;;6.21;98.12;98691.91;5014245;28;20205;-75
2022/11/18 00:33:36;;;;;;;13.07;11.97;;;;;;;6.24;97.91;98693.56;5015037;28;20561;-75
2022/11/18 00:36:04;;;;;;;12.87;11.67;;;;;;;6.21;97.61;98689.31;5014695;28;20702;-75
2022/11/18 00:38:32;;;;;;;12.83;11.73;;;;;;;6.20;98.14;98700.56;5014411;28;20578;-75
2022/11/18 00:41:00;;;;;;;12.30;11.20;;;;;;;6.08;99.09;98686.22;5014287;28;20216;-74
2022/11/18 00:43:25;;;;;;;11.80;10.70;;;;;;;6.08;98.82;98682.81;5015076;28;20207;-75
2022/11/18 00:45:52;;;;;;;12.30;11.20;;;;;;;6.12;99.11;98699.94;5014440;28;20202;-75
2022/11/18 00:48:20;;;;;;;11.60;10.57;;;;;;;6.14;98.60;98693.84;5014708;28;20214;-74
2022/11/18 00:50:47;;;;;;;12.00;11.00;;;;;;;6.13;98.60;98704.25;5014392;28;20212;-74
2022/11/18 00:53:13;;;;;;;11.70;10.70;;;;;;;6.08;98.77;98701.78;5014749;28;20539;-74
2022/11/18 00:55:41;;;;;;;11.60;10.50;;;;;;;6.07;98.52;98697.50;5014186;28;20257;-74
2022/11/18 00:58:08;;;;;;;10.10;9.10;;;;;;;6.11;98.39;98696.53;5014170;28;20210;-74
2022/11/18 01:00:35;;;;;;;9.43;8.63;;;;;;;6.11;97.96;98701.69;5014327;28;20268;-74
2022/11/18 01:03:02;;;;;;;9.47;8.67;;;;;;;6.12;97.74;98716.34;5013877;28;20226;-75
2022/11/18 01:05:28;;;;;;;8.70;8.00;;;;;;;6.16;97.59;98724.88;5014503;28;20220;-74
2022/11/18 01:07:54;;;;;;;9.07;8.37;;;;;;;6.15;97.88;98731.81;5014039;28;20230;-74
2022/11/18 01:10:21;;;;;;;10.17;9.27;;;;;;;6.13;98.02;98736.19;5013649;28;20217;-74
2022/11/18 01:15:38;;;;;;;9.13;8.33;;;;;;;6.09;97.88;98749.28;5014040;28;20693;-74
2022/11/18 01:18:05;;;;;;;10.30;9.40;;;;;;;6.02;97.59;98745.97;5014160;28;20205;-74
2022/11/18 01:20:32;;;;;;;11.20;10.07;;;;;;;6.06;97.74;98746.75;5013437;28;20214;-74
2022/11/18 01:22:58;;;;;;;9.93;9.07;;;;;;;6.09;97.07;98752.69;5013889;28;20211;-74
2022/11/18 01:25:25;;;;;;;9.90;9.00;;;;;;;6.10;97.94;98762.16;5013917;28;20590;-74
2022/11/18 01:27:53;;;;;;;10.97;9.87;;;;;;;6.14;97.70;98756.03;5013847;28;20420;-74
2022/11/18 01:30:19;;;;;;;11.73;10.63;;;;;;;6.10;97.70;98743.19;5013409;28;20216;-75
2022/11/18 01:32:46;;;;;;;11.70;10.70;;;;;;;6.13;97.83;98741.34;5013855;28;20213;-74
2022/11/18 01:35:12;;;;;;;11.73;10.67;;;;;;;6.18;98.11;98749.00;5013486;28;20302;-74
2022/11/18 01:37:39;;;;;;;12.53;10.37;;;;;;;6.19;97.18;98758.47;5013935;28;20265;-76
2022/11/18 01:40:08;;;;;;;12.50;11.40;;;;;;;6.19;97.63;98761.06;5013384;28;20211;-74
2022/11/18 01:42:36;;;;;;;13.73;12.43;;;;;;;6.18;96.99;98771.47;5013302;28;20213;-75
2022/11/18 01:45:15;;;;;;;12.90;11.70;;;;;;;6.22;97.13;98773.06;5013493;28;20256;-74
2022/11/18 01:47:46;;;;;;;13.37;12.20;;;;;;;6.21;97.36;98774.81;5013267;28;20605;-75
2022/11/18 01:50:15;;;;;;;12.73;11.67;;;;;;;6.19;97.21;98773.19;5013144;28;20209;-74
2022/11/18 01:52:41;;;;;;;13.53;12.33;;;;;;;6.20;97.17;98773.09;5013573;28;20267;-74
2022/11/18 01:55:17;;;;;;;13.73;12.43;;;;;;;6.23;97.10;98786.00;5013473;28;20207;-74
2022/11/18 01:57:46;;;;;;;13.67;12.47;;;;;;;6.20;96.70;98786.06;5012999;28;20238;-74
2022/11/18 02:00:14;;;;;;;14.30;12.80;;;;;;;6.21;96.43;98790.38;5012674;28;20213;-74
2022/11/18 02:02:41;;;;;;;13.90;12.57;;;;;;;6.20;97.31;98803.34;5013247;28;20287;-74
2022/11/18 02:05:10;;;;;;;14.17;12.97;;;;;;;6.19;96.42;98801.69;5013248;28;20207;-75
2022/11/18 02:07:41;;;;;;;13.40;12.27;;;;;;;6.16;96.75;98790.50;5012811;28;20227;-74
2022/11/18 02:10:09;;;;;;;13.37;12.17;;;;;;;6.13;97.01;98792.31;5012989;28;20293;-75
2022/11/18 02:12:37;;;;;;;12.67;11.47;;;;;;;6.17;97.24;98788.75;5013028;28;20210;-74
2022/11/18 02:15:04;;;;;;;13.17;12.07;;;;;;;6.08;96.96;98794.19;5012826;28;20210;-74
2022/11/18 02:17:44;;;;;;;12.20;11.20;;;;;;;6.12;96.90;98782.84;5013148;28;20237;-74
2022/11/18 02:20:22;;;;;;;13.40;12.30;;;;;;;6.09;96.63;98793.31;5011702;28;20571;-75
2022/11/18 02:23:16;;;;;;;12.30;11.27;;;;;;;6.12;96.74;98788.88;5012844;28;20210;-74
2022/11/18 02:25:55;;;;;;;12.67;11.57;;;;;;;6.08;96.87;98789.00;5012591;28;20834;-74
2022/11/18 02:28:36;;;;;;;12.87;11.77;;;;;;;6.06;96.80;98794.22;5012846;28;20222;-74
2022/11/18 02:31:08;;;;;;;12.43;11.43;;;;;;;6.06;96.81;98790.78;5012733;28;20248;-74
2022/11/18 02:33:39;;;;;;;13.27;12.10;;;;;;;6.05;96.71;98797.72;5012563;28;20201;-74
2022/11/18 02:36:13;;;;;;;12.40;11.40;;;;;;;6.02;96.86;98800.38;5012703;28;20234;-74
2022/11/18 02:38:44;;;;;;;11.50;10.50;;;;;;;6.03;96.74;98799.50;5012521;28;20583;-74
2022/11/18 02:41:14;;;;;;;11.20;10.20;;;;;;;6.03;97.14;98801.25;5012337;28;20221;-74
2022/11/18 02:43:45;;;;;;;11.30;10.30;;;;;;;6.00;97.12;98802.16;5012563;28;20211;-74
2022/11/18 02:46:17;;;;;;;12.13;11.13;;;;;;;5.97;96.93;98807.44;5012769;28;20630;-74
2022/11/18 02:48:48;;;;;;;11.30;10.30;;;;;;;6.03;96.38;98807.25;5012511;28;20205;-75
2022/11/18 02:51:18;;;;;;;10.97;9.97;;;;;;;5.99;96.97;98807.41;5012260;28;20213;-75
2022/11/18 02:53:45;;;;;;;11.43;10.40;;;;;;;5.95;96.96;98804.88;5012507;28;20210;-74
2022/11/18 02:56:13;;;;;;;9.83;9.03;;;;;;;5.99;96.89;98799.63;5012122;28;20244;-75
2022/11/18 02:58:39;;;;;;;11.50;10.50;;;;;;;5.94;97.00;98810.06;5012324;28;20208;-74
2022/11/18 03:01:06;;;;;;;10.70;9.80;;;;;;;6.01;97.46;98806.47;5011999;28;20210;-74
2022/11/18 03:03:36;;;;;;;11.83;10.83;;;;;;;6.04;96.71;98806.34;5012299;28;20671;-74
2022/11/18 03:06:09;;;;;;;11.40;10.30;;;;;;;6.05;96.67;98817.59;5012177;28;20233;-74
2022/11/18 03:08:41;;;;;;;11.37;10.37;;;;;;;6.02;96.30;98831.44;5011929;28;20558;-74
2022/11/18 03:11:14;;;;;;;10.87;9.87;;;;;;;6.03;96.60;98822.81;5012388;28;20209;-74
2022/11/18 03:13:49;;;;;;;10.43;9.53;;;;;;;6.05;96.80;98825.34;5012043;28;20204;-74
2022/11/18 03:16:21;;;;;;;11.63;10.53;;;;;;;6.02;96.43;98828.84;5012299;28;20222;-75
2022/11/18 03:18:57;;;;;;;11.20;10.30;;;;;;;6.07;96.67;98841.72;5012133;28;20694;-75
2022/11/18 03:21:31;;;;;;;11.97;10.90;;;;;;;6.06;96.15;98840.84;5011795;28;20198;-75
2022/11/18 03:24:02;;;;;;;10.70;9.80;;;;;;;6.04;96.41;98844.38;5012500;28;20228;-74
2022/11/18 03:26:33;;;;;;;11.30;10.30;;;;;;;6.02;96.22;98849.59;5012037;28;20240;-74
2022/11/18 03:29:04;;;;;;;11.30;10.30;;;;;;;6.01;96.20;98849.66;5012119;28;20222;-74
2022/11/18 03:31:36;;;;;;;10.63;9.73;;;;;;;5.92;96.15;98854.13;5013370;28;20209;-74
2022/11/18 03:34:09;;;;;;;11.57;10.57;;;;;;;5.90;96.42;98863.66;5016178;28;20208;-74
2022/11/18 03:36:41;;;;;;;11.17;10.17;;;;;;;5.91;96.08;98865.38;5015948;28;20236;-74
2022/11/18 03:39:11;;;;;;;12.33;11.13;;;;;;;5.88;96.22;98868.03;5016005;28;20219;-75
2022/11/18 03:41:42;;;;;;;11.40;10.43;;;;;;;5.94;96.21;98878.22;5015692;28;20226;-74
2022/11/18 03:44:13;;;;;;;10.30;9.50;;;;;;;5.93;96.14;98892.09;5015632;28;20199;-74
2022/11/18 03:46:44;;;;;;;10.43;9.53;;;;;;;5.90;95.57;98902.50;5015421;28;20224;-74
2022/11/18 03:49:19;;;;;;;10.80;9.90;;;;;;;5.89;95.28;98907.75;5015775;28;20218;-74
2022/11/18 03:51:51;;;;;;;10.43;9.47;;;;;;;5.90;95.72;98905.09;5015495;28;20206;-74
2022/11/18 03:54:23;;;;;;;11.20;10.23;;;;;;;5.94;96.02;98916.22;5015757;28;20195;-75
2022/11/18 03:56:54;;;;;;;10.50;9.50;;;;;;;5.93;95.58;98914.56;5015119;28;20626;-75
2022/11/18 03:59:25;;;;;;;11.30;10.20;;;;;;;5.93;95.22;98915.38;5015835;28;20217;-75
2022/11/18 04:01:55;;;;;;;10.43;9.53;;;;;;;5.95;95.93;98928.34;5015408;28;20201;-74
2022/11/18 04:04:25;;;;;;;9.90;9.00;;;;;;;5.93;95.07;98917.13;5015809;28;20211;-75
2022/11/18 04:06:59;;;;;;;10.27;9.23;;;;;;;5.86;95.58;98926.78;5015442;28;20230;-75
2022/11/18 04:09:32;;;;;;;10.10;9.20;;;;;;;5.81;95.09;98933.81;5015115;28;20204;-75
2022/11/18 04:12:02;;;;;;;10.40;9.50;;;;;;;5.83;96.14;98918.22;5014950;28;20561;-74
2022/11/18 04:14:31;;;;;;;10.27;9.37;;;;;;;5.84;94.89;98928.56;5015443;28;20214;-74
2022/11/18 04:16:57;;;;;;;9.53;8.63;;;;;;;5.84;95.44;98938.06;5015248;28;20242;-75
2022/11/18 04:19:25;;;;;;;10.80;8.50;;;;;;;5.85;95.36;98932.84;5014999;28;20219;-74
2022/11/18 04:21:52;;;;;;;10.53;9.53;;;;;;;5.81;94.91;98941.59;5014760;28;20206;-74
2022/11/18 04:24:18;;;;;;;9.33;8.53;;;;;;;5.82;95.53;98947.59;5015191;28;20209;-75
2022/11/18 04:26:45;;;;;;;9.63;8.83;;;;;;;5.83;95.00;98939.81;5015266;28;20229;-74
2022/11/18 04:29:11;;;;;;;9.43;8.53;;;;;;;5.79;94.72;98948.53;5014870;28;20213;-74
2022/11/18 04:31:38;;;;;;;8.57;7.77;;;;;;;5.76;94.78;98954.63;5014582;28;20218;-74
2022/11/18 04:34:04;;;;;;;9.40;8.60;;;;;;;5.76;95.05;98957.22;5014810;28;20236;-74
2022/11/18 04:36:32;;;;;;;9.37;8.40;;;;;;;5.74;95.29;98959.00;5014695;28;20233;-74
2022/11/18 04:38:58;;;;;;;10.93;9.67;;;;;;;5.75;94.60;98952.09;5014733;28;20214;-74
2022/11/18 04:41:54;;;;;;;10.13;9.20;;;;;;;5.68;95.23;98953.94;5014366;28;20210;-74
2022/11/18 04:44:12;;;;;;;9.70;8.70;;;;;;;5.67;95.82;98938.44;5013758;28;20650;-74
2022/11/18 04:46:40;;;;;;;10.40;9.40;;;;;;;5.64;95.61;98941.13;5014443;28;20228;-74
2022/11/18 04:49:07;;;;;;;9.80;8.90;;;;;;;5.63;96.09;98929.94;5014628;28;20206;-74
2022/11/18 04:51:35;;;;;;;9.43;8.57;;;;;;;5.67;96.13;98933.28;5014174;28;20218;-74
2022/11/18 04:54:02;;;;;;;9.50;8.60;;;;;;;5.63;95.20;98936.81;5014591;28;20221;-74
2022/11/18 04:56:29;;;;;;;10.07;9.17;;;;;;;5.62;95.78;98946.34;5014385;28;20250;-74
2022/11/18 04:58:57;;;;;;;9.70;8.80;;;;;;;5.64;95.79;98943.72;5014601;28;20212;-74
2022/11/18 05:01:24;;;;;;;9.73;8.83;;;;;;;5.66;95.82;98942.78;5013913;28;20218;-74
2022/11/18 05:03:50;;;;;;;9.37;8.57;;;;;;;5.68;96.30;98950.53;5014056;28;20716;-74
2022/11/18 05:06:17;;;;;;;9.50;8.57;;;;;;;5.67;95.26;98947.09;5014302;28;20233;-75
2022/11/18 05:08:45;;;;;;;9.87;8.97;;;;;;;5.63;95.21;98957.53;5014095;28;20211;-74
2022/11/18 05:13:55;;;;;;;8.07;7.37;;;;;;;5.60;95.61;98955.03;5014154;28;20238;-74
2022/11/18 05:16:22;;;;;;;9.00;8.20;;;;;;;5.62;95.14;98959.28;5013727;28;20709;-74
2022/11/18 05:18:48;;;;;;;10.60;9.03;;;;;;;5.52;96.20;98962.97;5013800;28;20229;-74
2022/11/18 05:21:15;;;;;;;9.87;8.97;;;;;;;5.56;96.18;98952.50;5013754;28;20209;-74
2022/11/18 05:23:41;;;;;;;10.27;9.27;;;;;;;5.62;96.22;98953.25;5014541;28;20295;-74
2022/11/18 05:26:11;;;;;;;10.33;9.27;;;;;;;5.58;96.17;98965.41;5013656;28;20743;-75
2022/11/18 05:28:38;;;;;;;10.07;9.17;;;;;;;5.62;95.40;98979.13;5013657;28;20202;-74
2022/11/18 05:31:07;;;;;;;10.63;9.73;;;;;;;5.55;95.64;98983.63;5013668;28;20586;-75
2022/11/18 05:33:33;;;;;;;10.27;9.27;;;;;;;5.54;95.98;98974.97;5013773;28;20202;-75
2022/11/18 05:36:03;;;;;;;11.77;10.60;;;;;;;5.54;96.24;98980.16;5013498;28;20240;-74
2022/11/18 05:38:29;;;;;;;9.90;8.63;;;;;;;5.56;95.93;98993.06;5013688;28;20240;-75
2022/11/18 05:40:56;;;;;;;10.07;9.17;;;;;;;5.55;95.48;98986.19;5007280;22;20242;-75
2022/11/18 05:43:23;;;;;;;9.70;8.80;;;;;;;5.52;95.14;99000.03;4979535;28;20214;-77
2022/11/18 05:45:51;;;;;;;9.70;8.77;;;;;;;5.56;94.99;99013.78;4974171;28;20218;-77
2022/11/18 05:48:18;;;;;;;9.00;8.17;;;;;;;5.53;95.39;99019.88;4974585;28;20206;-77
2022/11/18 05:50:47;;;;;;;9.13;8.23;;;;;;;5.52;94.65;99025.06;4973990;28;20219;-77
2022/11/18 05:53:14;;;;;;;9.03;8.23;;;;;;;5.51;94.89;99033.72;4974415;28;20219;-77
2022/11/18 05:55:47;;;;;;;9.27;8.37;;;;;;;5.46;95.50;99030.38;4973144;28;20237;-77
2022/11/18 05:58:14;;;;;;;9.23;8.33;;;;;;;5.43;95.25;99027.84;4973896;28;20247;-77
2022/11/18 06:00:43;;;;;;;9.00;8.10;;;;;;;5.43;94.76;99031.31;4973863;28;20215;-77
2022/11/18 06:03:17;;;;;;;9.77;8.87;;;;;;;5.48;95.02;99038.97;4974251;28;20219;-77
2022/11/18 06:05:44;;;;;;;11.20;10.10;;;;;;;5.43;95.43;99031.31;4974073;28;20229;-77
2022/11/18 06:08:13;;;;;;;12.90;11.60;;;;;;;5.45;94.92;99037.31;4974389;28;20567;-77
2022/11/18 06:10:43;;;;;;;12.67;11.47;;;;;;;5.47;95.55;99051.06;4973970;28;20214;-77
2022/11/18 06:13:14;;;;;;;12.17;10.97;;;;;;;5.47;94.88;99052.78;4973825;28;20219;-77
2022/11/18 06:15:44;;;;;;;11.93;10.63;;;;;;;5.37;95.36;99052.09;4973901;28;20234;-77
2022/11/18 06:18:16;;;;;;;13.30;11.90;;;;;;;5.36;95.82;99046.09;4974051;28;20261;-77
2022/11/18 06:20:43;;;;;;;13.90;12.50;;;;;;;5.39;95.64;99042.56;4973571;28;20208;-77
2022/11/18 06:23:09;;;;;;;14.10;12.70;;;;;;;5.39;94.71;99055.50;4973823;28;20608;-77
2022/11/18 06:25:38;;;;;;;15.33;13.83;;;;;;;5.37;94.81;99068.50;4974064;28;20226;-77
2022/11/18 06:28:05;;;;;;;13.77;12.50;;;;;;;5.33;94.23;99081.50;4973289;28;20269;-77
2022/11/18 06:30:31;;;;;;;13.47;11.63;;;;;;;5.34;94.30;99088.41;4973610;28;20211;-77
2022/11/18 06:32:59;;;;;;;14.40;12.40;;;;;;;5.31;94.32;99109.16;4973753;28;20223;-77
2022/11/18 06:35:25;;;;;;;15.40;12.90;;;;;;;5.32;93.95;99116.03;4973619;28;20669;-77
2022/11/18 06:37:52;;;;;;;13.80;12.40;;;;;;;5.23;93.95;99111.03;4972948;28;20704;-77
2022/11/18 06:40:18;;;;;;;13.80;12.40;;;;;;;5.24;94.85;99103.25;4973254;28;20237;-77
2022/11/18 06:45:30;;;;;;;15.17;13.13;;;;;;;5.20;95.13;99100.75;4991943;28;20218;-77
2022/11/18 06:47:57;;;;;;;14.30;12.80;;;;;;;5.26;94.31;99101.50;4999195;28;20222;-77
2022/11/18 06:50:25;;;;;;;12.50;11.23;;;;;;;5.27;95.10;99103.22;5006075;28;20256;-77
2022/11/18 06:52:51;;;;;;;12.57;10.60;;;;;;;5.23;94.53;99101.53;5012477;28;20208;-77
2022/11/18 06:55:17;;;;;;;12.23;11.03;;;;;;;5.25;94.62;99114.44;5012249;28;20204;-77
2022/11/18 06:57:44;;;;;;;11.97;10.77;;;;;;;5.23;94.39;99116.22;5011784;28;20236;-77
2022/11/18 07:00:12;;;;;;;10.80;9.73;;;;;;;5.16;94.70;99113.72;5003538;28;20206;-77
2022/11/18 07:02:39;;;;;;;12.37;11.03;;;;;;;5.19;94.91;99112.81;5000960;28;20217;-77
2022/11/18 07:05:06;;;;;;;13.10;11.83;;;;;;;5.13;94.50;99124.16;5002687;28;20500;-77
2022/11/18 07:07:35;;;;;;;13.40;12.00;;;;;;;5.10;94.33;99128.53;5002042;28;20232;-77
2022/11/18 07:10:02;;;;;;;15.57;13.30;;;;;;;5.13;94.32;99131.91;4997801;28;20198;-77
2022/11/18 07:12:28;;;;;;;13.37;11.97;;;;;;;5.14;94.46;99130.16;5001781;28;20201;-77
2022/11/18 07:14:55;;;;;;;13.93;12.53;;;;;;;5.12;94.49;99135.38;5002663;28;20209;-77
2022/11/18 07:17:21;;;;;;;11.13;10.03;;;;;;;5.06;94.86;99134.63;5000450;28;20597;-77
2022/11/18 07:19:48;;;;;;;10.30;9.40;;;;;;;5.10;94.39;99131.13;5001048;28;20242;-77
2022/11/18 07:22:14;;;;;;;9.47;8.57;;;;;;;5.01;94.58;99134.69;5000808;28;20203;-77
2022/11/18 07:24:42;;;;;;;10.37;9.30;;;;;;;4.98;94.64;99140.78;5005628;28;20210;-77
2022/11/18 07:27:09;;;;;;;10.00;9.10;;;;;;;5.03;94.69;99137.25;5009895;28;20528;-77
2022/11/18 07:29:35;;;;;;;10.03;9.03;;;;;;;5.02;94.63;99139.00;5001487;28;20198;-77
2022/11/18 07:32:01;;;;;;;9.77;8.87;;;;;;;5.06;94.23;99150.16;5001741;28;20205;-75
2022/11/18 07:34:28;;;;;;;10.97;8.77;;;;;;;5.05;93.63;99159.63;5000720;28;20207;-77
2022/11/18 07:36:54;;;;;;;10.67;9.53;;;;;;;5.04;94.14;99160.50;5002158;28;20227;-77
2022/11/18 07:39:21;;;;;;;10.87;9.87;;;;;;;5.05;94.37;99169.97;4999970;28;20235;-78
2022/11/18 07:41:49;;;;;;;9.77;8.97;;;;;;;5.11;93.85;99176.78;4999540;28;20572;-77
2022/11/18 07:44:17;;;;;;;10.83;9.70;;;;;;;5.09;93.75;99194.06;4998254;28;20200;-77
2022/11/18 07:46:45;;;;;;;10.37;9.27;;;;;;;5.07;93.81;99191.47;5004854;28;20769;-83
2022/11/18 07:49:12;;;;;;;9.90;9.00;;;;;;;5.08;93.54;99203.53;5008007;28;20209;-84
2022/11/18 07:51:40;;;;;;;10.13;9.13;;;;;;;5.07;92.57;99219.94;5004600;28;20295;-84
2022/11/18 07:54:07;;;;;;;10.87;9.77;;;;;;;5.06;92.66;99233.75;5005821;28;20224;-83
2022/11/18 07:56:34;;;;;;;9.37;8.50;;;;;;;5.00;93.37;99238.19;5006768;28;20221;-83
2022/11/18 07:59:02;;;;;;;9.53;8.63;;;;;;;5.06;92.84;99243.25;5004924;28;20228;-83
2022/11/18 08:01:29;;;;;;;9.37;8.47;;;;;;;5.01;92.89;99243.31;5006557;28;20202;-83
2022/11/18 08:03:56;;;;;;;9.73;8.83;;;;;;;5.00;93.08;99243.34;5006266;28;20208;-83
2022/11/18 08:06:23;;;;;;;9.67;8.77;;;;;;;4.95;93.14;99240.81;5002360;28;20218;-83
2022/11/18 08:08:49;;;;;;;10.80;9.30;;;;;;;4.91;93.88;99226.22;5001146;28;20201;-83
2022/11/18 08:11:18;;;;;;;9.20;8.40;;;;;;;4.73;94.29;99230.78;5004305;28;20213;-83
2022/11/18 08:13:45;;;;;;;9.80;8.90;;;;;;;4.79;93.65;99232.44;5001719;28;20238;-84
2022/11/18 08:16:16;;;;;;;10.47;9.37;;;;;;;4.83;93.04;99239.28;5003675;28;20742;-84
2022/11/18 08:18:42;;;;;;;8.63;7.80;;;;;;;4.87;92.53;99245.25;5005859;28;20225;-84
2022/11/18 08:21:10;;;;;;;9.20;8.40;;;;;;;4.78;93.18;99252.28;5008561;28;20215;-84
2022/11/18 08:23:37;;;;;;;9.47;8.57;;;;;;;4.76;93.14;99255.78;5011732;28;20198;-81
2022/11/18 08:26:06;;;;;;;9.93;8.93;;;;;;;4.67;94.08;99245.56;5013984;28;20220;-83
2022/11/18 08:28:33;;;;;;;11.73;9.67;;;;;;;4.76;93.74;99243.69;5011990;28;20200;-81
2022/11/18 08:30:59;;;;;;;10.60;9.40;;;;;;;4.81;93.51;99245.34;5011568;28;20205;-82
2022/11/18 08:33:27;;;;;;;11.20;10.10;;;;;;;4.83;93.10;99259.97;5007119;28;20200;-83
2022/11/18 08:35:53;;;;;;;11.47;10.37;;;;;;;4.84;92.40;99278.94;5011099;28;20289;-83
2022/11/18 08:38:20;;;;;;;13.17;11.20;;;;;;;4.82;92.07;99294.47;5006744;28;20233;-84
2022/11/18 08:40:47;;;;;;;12.70;10.90;;;;;;;4.76;92.29;99302.31;5009383;28;20237;-84
2022/11/18 08:43:14;;;;;;;15.93;14.45;;;;;;;4.77;92.42;99301.41;5005366;28;20544;-87
2022/11/18 08:45:41;;;;;;;13.67;12.30;;;;;;;4.80;93.17;99295.34;4996943;28;20214;-86
2022/11/18 08:48:08;;;;;;;13.07;11.50;;;;;;;4.84;92.90;99304.78;4996117;28;20221;-86
2022/11/18 08:50:35;;;;;;;13.17;11.93;;;;;;;4.86;91.94;99315.97;5002732;28;20197;-86
2022/11/18 08:53:02;;;;;;;13.50;12.07;;;;;;;4.78;92.29;99321.22;5007073;28;20198;-86
2022/11/18 08:55:28;;;;;;;12.67;11.47;;;;;;;4.84;91.83;99330.63;5007384;28;20279;-86
2022/11/18 08:57:55;;;;;;;13.40;11.87;;;;;;;4.84;91.22;99344.41;5005250;28;20235;-87
2022/11/18 09:00:22;;;;;;;15.97;12.37;;;;;;;4.80;91.59;99352.22;5007071;28;20201;-86
2022/11/18 09:02:49;;;;;;;12.90;11.57;;;;;;;4.70;92.01;99352.34;5007165;28;21344;-87
2022/11/18 09:05:15;;;;;;;13.83;12.43;;;;;;;4.76;91.59;99365.19;4976313;28;20219;-86
2022/11/18 09:07:44;;;;;;;13.53;12.13;;;;;;;4.71;91.88;99358.38;4975964;28;20226;-86
2022/11/18 09:10:10;;;;;;;14.20;11.97;;;;;;;4.75;92.07;99350.53;4975916;28;20207;-86
2022/11/18 09:12:37;;;;;;;12.73;11.07;;;;;;;4.65;92.56;99340.34;4976605;28;20215;-87
2022/11/18 09:15:04;;;;;;;11.87;10.67;;;;;;;4.66;92.62;99342.91;4975255;28;20215;-86
2022/11/18 09:17:30;;;;;;;14.63;12.03;;;;;;;4.64;92.81;99347.25;4976167;28;20237;-87
2022/11/18 09:19:57;;;;;;;14.30;12.87;;;;;;;4.71;92.69;99353.19;4975719;28;20230;-81
2022/11/18 09:22:23;;;;;;;12.83;11.23;;;;;;;4.68;91.97;99363.59;4977654;28;20210;-85
2022/11/18 09:24:51;;;;;;;14.83;11.60;;;;;;;4.67;91.59;99367.88;4977258;28;20206;-86
2022/11/18 09:27:18;;;;;;;13.33;12.03;;;;;;;4.60;91.48;99380.88;4979222;28;20231;-85
2022/11/18 09:29:44;;;;;;;13.83;12.10;;;;;;;4.56;91.99;99393.03;4979413;28;20209;-85
2022/11/18 09:32:11;;;;;;;14.90;11.30;;;;;;;4.39;92.01;99393.19;4980395;28;20203;-85
2022/11/18 09:34:37;;;;;;;11.77;10.57;;;;;;;4.48;92.18;99385.34;4979977;28;20223;-85
2022/11/18 09:37:05;;;;;;;13.23;11.90;;;;;;;4.53;91.57;99396.47;4979529;28;20235;-85
2022/11/18 09:39:34;;;;;;;13.67;12.33;;;;;;;4.50;91.86;99403.41;4979345;28;20745;-85
2022/11/18 09:42:15;;;;;;;14.17;12.40;;;;;;;4.50;91.93;99404.28;4978656;28;20581;-85
2022/11/18 09:44:54;;;;;;;13.23;11.83;;;;;;;4.51;91.28;99411.13;4979709;28;20222;-85
2022/11/18 09:47:27;;;;;;;14.87;12.30;;;;;;;4.43;91.45;99425.88;4977811;28;20230;-85
2022/11/18 09:49:56;;;;;;;16.20;12.57;;;;;;;4.45;91.10;99426.72;4977977;28;20189;-86
2022/11/18 09:52:27;;;;;;;14.30;12.30;;;;;;;4.43;90.51;99436.22;4978119;28;20202;-85
2022/11/18 09:54:54;;;;;;;12.13;10.97;;;;;;;4.40;90.96;99436.25;4979233;28;20212;-86
2022/11/18 09:57:25;;;;;;;13.77;12.37;;;;;;;4.31;91.67;99436.34;4981611;28;20234;-86
2022/11/18 09:59:52;;;;;;;13.70;12.40;;;;;;;4.32;90.85;99438.03;4997368;28;20250;-78
2022/11/18 10:02:41;;;;;;;14.20;12.70;;;;;;;4.33;90.69;99440.59;4998305;28;20212;-83
2022/11/18 10:05:15;;;;;;;13.60;12.30;;;;;;;4.31;90.76;99447.53;4984964;28;20213;-84
2022/11/18 10:07:49;;;;;;;14.97;12.30;;;;;;;4.26;90.85;99443.25;4977376;28;20241;-81
2022/11/18 10:10:21;;;;;;;19.27;13.20;;;;;;;4.25;91.41;99434.66;4975625;28;20208;-80
2022/11/18 10:12:55;;;;;;;14.73;13.23;;;;;;;4.15;91.67;99431.31;4975804;28;20691;-81
2022/11/18 10:15:29;;;;;;;15.93;13.63;;;;;;;4.20;91.68;99426.09;4979301;28;20213;-78
2022/11/18 10:18:06;;;;;;;16.03;13.50;;;;;;;4.26;91.20;99438.09;4995133;28;20250;-79
2022/11/18 10:20:41;;;;;;;18.43;14.77;;;;;;;4.21;91.94;99443.31;4995505;28;20497;-80
2022/11/18 10:23:15;;;;;;;20.57;14.93;;;;;;;4.26;92.28;99431.22;4995339;28;20668;-80
2022/11/18 10:25:41;;;;;;;14.50;13.13;;;;;;;4.32;92.42;99433.75;4995171;28;20358;-82
2022/11/18 10:31:31;;;;;;;14.27;12.80;;;;;;;4.22;91.30;99465.66;4994734;28;20194;-82
2022/11/18 10:34:05;;;;;;;14.97;13.47;;;;;;;4.25;90.98;99476.00;4995246;28;20226;-86
2022/11/18 10:36:33;;;;;;;16.93;13.60;;;;;;;4.26;90.63;99487.16;4995762;28;20239;-81
2022/11/18 10:39:20;;;;;;;13.77;12.47;;;;;;;4.23;90.49;99493.22;4996604;28;20331;-83
2022/11/18 10:41:52;;;;;;;13.77;12.37;;;;;;;4.16;90.94;99492.44;4990976;28;20218;-83
2022/11/18 10:44:33;;;;;;;16.08;13.05;;;;;;;4.17;90.98;99501.03;4293607;28;10000754;-83
2022/11/18 10:47:32;;;;;;;13.43;12.03;;;;;;;4.18;91.01;99495.84;4971502;28;20572;-82
2022/11/18 10:50:00;;;;;;;14.03;12.50;;;;;;;4.07;90.73;99508.00;4892506;29;20371;-86
2022/11/18 10:52:27;;;;;;;13.27;12.00;;;;;;;4.00;91.00;99500.31;4953104;28;20733;-83
2022/11/18 10:55:21;;;;;;;13.23;11.77;;;;;;;4.04;91.25;99489.06;4970653;28;20215;-81
2022/11/18 10:57:50;;;;;;;14.93;12.50;;;;;;;4.04;91.70;99484.75;4971534;28;20656;-82
2022/11/18 11:00:35;;;;;;;12.63;11.33;;;;;;;4.12;91.04;99485.59;4971142;28;20246;-78
2022/11/18 11:03:20;;;;;;;13.63;12.33;;;;;;;4.12;91.02;99501.09;4974815;28;20211;-79
2022/11/18 11:05:47;;;;;;;13.30;11.90;;;;;;;4.07;91.16;99505.41;4973306;28;20207;-79
2022/11/18 11:08:20;;;;;;;14.53;13.00;;;;;;;4.08;90.91;99508.84;4973578;28;20212;-79
2022/11/18 11:10:54;;;;;;;13.00;11.80;;;;;;;4.04;90.81;99508.00;4972630;28;20209;-79
2022/11/18 11:13:24;;;;;;;14.27;12.83;;;;;;;4.09;90.36;99521.75;4972347;28;20254;-80
2022/11/18 11:15:54;;;;;;;12.87;11.43;;;;;;;4.03;90.36;99526.97;4984581;28;20575;-79
2022/11/18 11:18:43;;;;;;;13.43;12.13;;;;;;;4.05;90.38;99538.13;4997404;28;20207;-79
2022/11/18 11:21:11;;;;;;;13.73;12.43;;;;;;;4.02;89.84;99540.72;5000106;28;20203;-80
2022/11/18 11:23:38;;;;;;;13.40;12.10;;;;;;;4.04;90.20;99548.47;5000339;28;20204;-80
2022/11/18 11:26:13;;;;;;;13.80;12.40;;;;;;;4.01;90.57;99543.34;5000335;28;20234;-82
2022/11/18 11:28:48;;;;;;;14.17;12.63;;;;;;;3.94;90.34;99547.66;5000670;28;20204;-81
2022/11/18 11:31:21;;;;;;;13.40;12.10;;;;;;;3.96;90.34;99548.50;5003112;28;20208;-81
2022/11/18 11:33:59;;;;;;;14.23;12.83;;;;;;;3.89;90.64;99554.59;5012446;28;20218;-79
2022/11/18 11:36:36;;;;;;;14.27;12.87;;;;;;;3.91;90.19;99553.72;5012127;28;20222;-80
2022/11/18 11:39:33;;;;;;;13.60;12.30;;;;;;;3.89;90.44;99558.03;5013433;28;20251;-80
2022/11/18 11:42:10;;;;;;;13.07;11.80;;;;;;;3.79;90.68;99556.38;5012908;28;20218;-80
2022/11/18 11:44:52;;;;;;;14.27;12.80;;;;;;;3.77;90.79;99548.63;4997351;28;20217;-79
2022/11/18 11:47:49;;;;;;;14.60;13.10;;;;;;;3.68;91.22;99550.41;4990142;28;20240;-79
2022/11/18 11:50:28;;;;;;;13.30;12.00;;;;;;;3.70;91.25;99535.78;4990801;28;20205;-81
2022/11/18 11:53:13;;;;;;;15.43;13.80;;;;;;;3.71;91.14;99542.66;4990209;28;20210;-81
2022/11/18 11:55:53;;;;;;;14.63;13.23;;;;;;;3.75;90.77;99534.88;4993632;28;20218;-83